sensor_id;sensor_type;location;lat;lon;timestamp;P1;durP1;ratioP1;P2;durP2;ratioP2
12867;SDS011;33517;49.866;8.320;2023-06-24T00:02:35;3.63;;;1.25;;
12867;SDS011;33517;49.866;8.320;2023-06-24T00:05:27;2.08;;;1.83;;
12867;SDS011;33517;49.866;8.320;2023-06-24T00:08:20;2.53;;;1.77;;
12867;SDS011;33517;49.866;8.320;2023-06-24T00:11:12;1.90;;;1.65;;
12867;SDS011;33517;49.866;8.320;2023-06-24T00:14:04;2.83;;;1.48;;
12867;SDS011;33517;49.866;8.320;2023-06-24T00:16:57;2.13;;;1.85;;
12867;SDS011;33517;49.866;8.320;2023-06-24T00:19:48;2.70;;;1.48;;
12867;SDS011;33517;49.866;8.320;2023-06-24T00:22:40;0.95;;;0.95;;
12867;SDS011;33517;49.866;8.320;2023-06-24T00:25:35;1.65;;;1.55;;
12867;SDS011;33517;49.866;8.320;2023-06-24T00:28:27;2.22;;;1.63;;
12867;SDS011;33517;49.866;8.320;2023-06-24T00:31:19;2.50;;;1.45;;
12867;SDS011;33517;49.866;8.320;2023-06-24T00:34:11;1.38;;;1.27;;
12867;SDS011;33517;49.866;8.320;2023-06-24T00:37:03;1.10;;;0.95;;
12867;SDS011;33517;49.866;8.320;2023-06-24T00:39:55;1.83;;;1.67;;
12867;SDS011;33517;49.866;8.320;2023-06-24T00:42:48;2.53;;;1.67;;
12867;SDS011;33517;49.866;8.320;2023-06-24T00:45:39;2.35;;;1.52;;
12867;SDS011;33517;49.866;8.320;2023-06-24T00:48:32;1.98;;;1.58;;
12867;SDS011;33517;49.866;8.320;2023-06-24T00:51:24;1.70;;;1.42;;
12867;SDS011;33517;49.866;8.320;2023-06-24T00:54:16;3.00;;;1.58;;
12867;SDS011;33517;49.866;8.320;2023-06-24T00:57:08;2.78;;;2.22;;
12867;SDS011;33517;49.866;8.320;2023-06-24T01:00:02;3.38;;;2.53;;
12867;SDS011;33517;49.866;8.320;2023-06-24T01:02:59;5.43;;;2.70;;
12867;SDS011;33517;49.866;8.320;2023-06-24T01:05:51;2.28;;;1.90;;
12867;SDS011;33517;49.866;8.320;2023-06-24T01:08:44;2.45;;;2.00;;
12867;SDS011;33517;49.866;8.320;2023-06-24T01:11:41;3.75;;;2.78;;
12867;SDS011;33517;49.866;8.320;2023-06-24T01:14:33;8.90;;;4.65;;
12867;SDS011;33517;49.866;8.320;2023-06-24T01:17:28;1.92;;;1.83;;
12867;SDS011;33517;49.866;8.320;2023-06-24T01:20:27;3.08;;;1.98;;
12867;SDS011;33517;49.866;8.320;2023-06-24T01:23:36;2.38;;;2.17;;
12867;SDS011;33517;49.866;8.320;2023-06-24T01:30:15;6.38;;;3.70;;
12867;SDS011;33517;49.866;8.320;2023-06-24T01:33:22;4.18;;;3.08;;
12867;SDS011;33517;49.866;8.320;2023-06-24T01:36:17;2.65;;;2.15;;
12867;SDS011;33517;49.866;8.320;2023-06-24T01:39:10;2.88;;;1.83;;
12867;SDS011;33517;49.866;8.320;2023-06-24T01:42:07;1.70;;;1.60;;
12867;SDS011;33517;49.866;8.320;2023-06-24T01:45:01;8.18;;;4.45;;
12867;SDS011;33517;49.866;8.320;2023-06-24T01:47:54;3.95;;;3.08;;
12867;SDS011;33517;49.866;8.320;2023-06-24T01:50:55;6.13;;;4.15;;
12867;SDS011;33517;49.866;8.320;2023-06-24T01:53:51;8.35;;;4.53;;
12867;SDS011;33517;49.866;8.320;2023-06-24T01:56:45;2.22;;;1.83;;
12867;SDS011;33517;49.866;8.320;2023-06-24T01:59:39;8.48;;;4.32;;
12867;SDS011;33517;49.866;8.320;2023-06-24T02:02:33;5.30;;;3.53;;
12867;SDS011;33517;49.866;8.320;2023-06-24T02:05:27;12.30;;;6.00;;
12867;SDS011;33517;49.866;8.320;2023-06-24T02:08:21;6.63;;;4.70;;
12867;SDS011;33517;49.866;8.320;2023-06-24T02:11:14;17.90;;;8.95;;
12867;SDS011;33517;49.866;8.320;2023-06-24T02:14:08;7.30;;;4.85;;
12867;SDS011;33517;49.866;8.320;2023-06-24T02:17:01;10.27;;;4.50;;
12867;SDS011;33517;49.866;8.320;2023-06-24T02:19:56;6.03;;;4.93;;
12867;SDS011;33517;49.866;8.320;2023-06-24T02:22:49;14.63;;;7.70;;
12867;SDS011;33517;49.866;8.320;2023-06-24T02:25:42;6.22;;;3.72;;
12867;SDS011;33517;49.866;8.320;2023-06-24T02:28:35;6.10;;;4.13;;
12867;SDS011;33517;49.866;8.320;2023-06-24T02:31:27;6.10;;;3.03;;
12867;SDS011;33517;49.866;8.320;2023-06-24T02:34:19;3.70;;;2.55;;
12867;SDS011;33517;49.866;8.320;2023-06-24T02:37:12;7.95;;;5.03;;
12867;SDS011;33517;49.866;8.320;2023-06-24T02:40:04;11.57;;;6.75;;
12867;SDS011;33517;49.866;8.320;2023-06-24T02:42:59;8.63;;;4.43;;
12867;SDS011;33517;49.866;8.320;2023-06-24T02:45:51;9.57;;;5.75;;
12867;SDS011;33517;49.866;8.320;2023-06-24T02:48:44;9.60;;;5.03;;
12867;SDS011;33517;49.866;8.320;2023-06-24T02:51:37;4.50;;;3.70;;
12867;SDS011;33517;49.866;8.320;2023-06-24T02:54:30;9.25;;;5.25;;
12867;SDS011;33517;49.866;8.320;2023-06-24T02:57:22;6.30;;;4.15;;
12867;SDS011;33517;49.866;8.320;2023-06-24T03:00:17;3.15;;;2.83;;
12867;SDS011;33517;49.866;8.320;2023-06-24T03:03:11;17.27;;;9.32;;
12867;SDS011;33517;49.866;8.320;2023-06-24T03:06:03;4.20;;;3.38;;
12867;SDS011;33517;49.866;8.320;2023-06-24T03:08:55;5.13;;;3.40;;
12867;SDS011;33517;49.866;8.320;2023-06-24T03:11:47;16.45;;;7.15;;
12867;SDS011;33517;49.866;8.320;2023-06-24T03:14:39;11.63;;;4.30;;
12867;SDS011;33517;49.866;8.320;2023-06-24T03:17:32;12.82;;;7.20;;
12867;SDS011;33517;49.866;8.320;2023-06-24T03:20:24;8.32;;;6.70;;
12867;SDS011;33517;49.866;8.320;2023-06-24T03:23:16;16.10;;;8.23;;
12867;SDS011;33517;49.866;8.320;2023-06-24T03:26:08;9.10;;;3.63;;
12867;SDS011;33517;49.866;8.320;2023-06-24T03:29:00;7.40;;;4.03;;
12867;SDS011;33517;49.866;8.320;2023-06-24T03:31:52;12.25;;;7.53;;
12867;SDS011;33517;49.866;8.320;2023-06-24T03:34:45;6.97;;;2.97;;
12867;SDS011;33517;49.866;8.320;2023-06-24T03:37:37;2.03;;;1.80;;
12867;SDS011;33517;49.866;8.320;2023-06-24T03:40:29;8.80;;;6.18;;
12867;SDS011;33517;49.866;8.320;2023-06-24T03:43:22;5.72;;;3.83;;
12867;SDS011;33517;49.866;8.320;2023-06-24T03:46:13;2.22;;;1.98;;
12867;SDS011;33517;49.866;8.320;2023-06-24T03:49:05;1.35;;;1.20;;
12867;SDS011;33517;49.866;8.320;2023-06-24T03:51:59;3.50;;;1.92;;
12867;SDS011;33517;49.866;8.320;2023-06-24T03:54:51;2.00;;;1.77;;
12867;SDS011;33517;49.866;8.320;2023-06-24T03:57:43;6.45;;;4.47;;
12867;SDS011;33517;49.866;8.320;2023-06-24T04:00:35;2.35;;;2.00;;
12867;SDS011;33517;49.866;8.320;2023-06-24T04:03:30;3.30;;;3.00;;
12867;SDS011;33517;49.866;8.320;2023-06-24T04:06:23;2.20;;;2.00;;
12867;SDS011;33517;49.866;8.320;2023-06-24T04:09:16;4.60;;;3.47;;
12867;SDS011;33517;49.866;8.320;2023-06-24T04:12:08;2.15;;;1.55;;
12867;SDS011;33517;49.866;8.320;2023-06-24T04:15:01;2.40;;;1.95;;
12867;SDS011;33517;49.866;8.320;2023-06-24T04:17:53;3.63;;;2.72;;
12867;SDS011;33517;49.866;8.320;2023-06-24T04:20:45;3.15;;;1.92;;
12867;SDS011;33517;49.866;8.320;2023-06-24T04:23:37;8.88;;;5.65;;
12867;SDS011;33517;49.866;8.320;2023-06-24T04:26:30;4.72;;;2.38;;
12867;SDS011;33517;49.866;8.320;2023-06-24T04:29:22;2.55;;;1.67;;
12867;SDS011;33517;49.866;8.320;2023-06-24T04:32:14;9.55;;;3.20;;
12867;SDS011;33517;49.866;8.320;2023-06-24T04:35:06;1.70;;;1.60;;
12867;SDS011;33517;49.866;8.320;2023-06-24T04:37:58;4.25;;;3.47;;
12867;SDS011;33517;49.866;8.320;2023-06-24T04:40:50;8.02;;;2.22;;
12867;SDS011;33517;49.866;8.320;2023-06-24T04:43:43;4.32;;;2.40;;
12867;SDS011;33517;49.866;8.320;2023-06-24T04:46:35;9.10;;;3.67;;
12867;SDS011;33517;49.866;8.320;2023-06-24T04:49:27;5.30;;;3.28;;
12867;SDS011;33517;49.866;8.320;2023-06-24T04:52:19;3.60;;;2.42;;
12867;SDS011;33517;49.866;8.320;2023-06-24T04:55:11;2.42;;;2.22;;
12867;SDS011;33517;49.866;8.320;2023-06-24T04:58:03;4.13;;;2.90;;
12867;SDS011;33517;49.866;8.320;2023-06-24T05:00:56;2.92;;;2.25;;
12867;SDS011;33517;49.866;8.320;2023-06-24T05:03:49;3.40;;;2.50;;
12867;SDS011;33517;49.866;8.320;2023-06-24T05:06:41;2.50;;;2.30;;
12867;SDS011;33517;49.866;8.320;2023-06-24T05:09:33;4.57;;;3.05;;
12867;SDS011;33517;49.866;8.320;2023-06-24T05:12:27;4.15;;;2.85;;
12867;SDS011;33517;49.866;8.320;2023-06-24T05:15:19;3.53;;;2.58;;
12867;SDS011;33517;49.866;8.320;2023-06-24T05:18:12;5.15;;;2.40;;
12867;SDS011;33517;49.866;8.320;2023-06-24T05:21:04;2.35;;;1.98;;
12867;SDS011;33517;49.866;8.320;2023-06-24T05:23:56;2.60;;;1.70;;
12867;SDS011;33517;49.866;8.320;2023-06-24T05:26:48;3.35;;;2.03;;
12867;SDS011;33517;49.866;8.320;2023-06-24T05:29:41;2.70;;;2.15;;
12867;SDS011;33517;49.866;8.320;2023-06-24T05:32:33;3.13;;;2.08;;
12867;SDS011;33517;49.866;8.320;2023-06-24T05:35:26;2.13;;;1.65;;
12867;SDS011;33517;49.866;8.320;2023-06-24T05:38:18;4.20;;;2.22;;
12867;SDS011;33517;49.866;8.320;2023-06-24T05:41:10;2.78;;;1.90;;
12867;SDS011;33517;49.866;8.320;2023-06-24T05:44:02;2.38;;;2.17;;
12867;SDS011;33517;49.866;8.320;2023-06-24T05:46:54;2.38;;;1.85;;
12867;SDS011;33517;49.866;8.320;2023-06-24T05:49:46;3.15;;;2.05;;
12867;SDS011;33517;49.866;8.320;2023-06-24T05:52:39;1.88;;;1.75;;
12867;SDS011;33517;49.866;8.320;2023-06-24T05:55:31;2.38;;;1.92;;
12867;SDS011;33517;49.866;8.320;2023-06-24T05:58:22;5.55;;;2.95;;
12867;SDS011;33517;49.866;8.320;2023-06-24T06:01:14;3.50;;;2.55;;
12867;SDS011;33517;49.866;8.320;2023-06-24T06:04:06;2.30;;;2.10;;
12867;SDS011;33517;49.866;8.320;2023-06-24T06:06:58;2.92;;;2.08;;
12867;SDS011;33517;49.866;8.320;2023-06-24T06:09:51;4.07;;;2.05;;
12867;SDS011;33517;49.866;8.320;2023-06-24T06:12:43;2.80;;;2.22;;
12867;SDS011;33517;49.866;8.320;2023-06-24T06:15:35;6.80;;;2.92;;
12867;SDS011;33517;49.866;8.320;2023-06-24T06:18:27;4.45;;;2.60;;
12867;SDS011;33517;49.866;8.320;2023-06-24T06:21:19;5.15;;;3.08;;
12867;SDS011;33517;49.866;8.320;2023-06-24T06:24:10;3.47;;;3.05;;
12867;SDS011;33517;49.866;8.320;2023-06-24T06:27:04;3.97;;;2.35;;
12867;SDS011;33517;49.866;8.320;2023-06-24T06:30:00;4.00;;;2.92;;
12867;SDS011;33517;49.866;8.320;2023-06-24T06:32:52;4.22;;;2.67;;
12867;SDS011;33517;49.866;8.320;2023-06-24T06:35:44;3.65;;;2.70;;
12867;SDS011;33517;49.866;8.320;2023-06-24T06:38:35;2.55;;;2.30;;
12867;SDS011;33517;49.866;8.320;2023-06-24T06:41:27;3.30;;;2.63;;
12867;SDS011;33517;49.866;8.320;2023-06-24T06:44:20;3.95;;;2.72;;
12867;SDS011;33517;49.866;8.320;2023-06-24T06:47:12;3.55;;;3.03;;
12867;SDS011;33517;49.866;8.320;2023-06-24T06:50:05;4.80;;;2.75;;
12867;SDS011;33517;49.866;8.320;2023-06-24T06:52:58;7.20;;;2.78;;
12867;SDS011;33517;49.866;8.320;2023-06-24T06:55:49;3.00;;;2.58;;
12867;SDS011;33517;49.866;8.320;2023-06-24T06:58:42;3.70;;;2.80;;
12867;SDS011;33517;49.866;8.320;2023-06-24T07:01:35;2.80;;;2.30;;
12867;SDS011;33517;49.866;8.320;2023-06-24T07:04:27;2.58;;;2.28;;
12867;SDS011;33517;49.866;8.320;2023-06-24T07:07:19;2.42;;;2.20;;
12867;SDS011;33517;49.866;8.320;2023-06-24T07:10:11;2.17;;;1.98;;
12867;SDS011;33517;49.866;8.320;2023-06-24T07:13:12;3.60;;;2.50;;
12867;SDS011;33517;49.866;8.320;2023-06-24T07:16:08;4.88;;;2.10;;
12867;SDS011;33517;49.866;8.320;2023-06-24T07:19:03;2.72;;;2.22;;
12867;SDS011;33517;49.866;8.320;2023-06-24T07:21:57;4.78;;;2.78;;
12867;SDS011;33517;49.866;8.320;2023-06-24T07:24:51;2.80;;;2.28;;
12867;SDS011;33517;49.866;8.320;2023-06-24T07:27:48;3.60;;;2.80;;
12867;SDS011;33517;49.866;8.320;2023-06-24T07:30:40;3.15;;;2.33;;
12867;SDS011;33517;49.866;8.320;2023-06-24T07:33:36;3.17;;;2.67;;
12867;SDS011;33517;49.866;8.320;2023-06-24T07:36:33;2.47;;;2.28;;
12867;SDS011;33517;49.866;8.320;2023-06-24T07:39:27;4.03;;;2.50;;
12867;SDS011;33517;49.866;8.320;2023-06-24T07:42:18;2.72;;;2.30;;
12867;SDS011;33517;49.866;8.320;2023-06-24T07:45:13;7.03;;;2.42;;
12867;SDS011;33517;49.866;8.320;2023-06-24T07:48:06;4.90;;;2.45;;
12867;SDS011;33517;49.866;8.320;2023-06-24T07:50:59;3.95;;;2.40;;
12867;SDS011;33517;49.866;8.320;2023-06-24T07:53:55;5.00;;;2.47;;
12867;SDS011;33517;49.866;8.320;2023-06-24T07:56:52;2.22;;;2.03;;
12867;SDS011;33517;49.866;8.320;2023-06-24T07:59:44;2.90;;;2.03;;
12867;SDS011;33517;49.866;8.320;2023-06-24T08:02:38;2.30;;;2.10;;
12867;SDS011;33517;49.866;8.320;2023-06-24T08:05:43;2.78;;;2.33;;
12867;SDS011;33517;49.866;8.320;2023-06-24T08:08:55;2.55;;;2.08;;
12867;SDS011;33517;49.866;8.320;2023-06-24T08:11:57;2.30;;;2.08;;
12867;SDS011;33517;49.866;8.320;2023-06-24T08:14:49;2.30;;;2.00;;
12867;SDS011;33517;49.866;8.320;2023-06-24T08:17:41;2.00;;;1.80;;
12867;SDS011;33517;49.866;8.320;2023-06-24T08:20:35;4.57;;;2.15;;
12867;SDS011;33517;49.866;8.320;2023-06-24T08:23:27;2.67;;;1.75;;
12867;SDS011;33517;49.866;8.320;2023-06-24T08:26:23;4.47;;;1.90;;
12867;SDS011;33517;49.866;8.320;2023-06-24T08:29:15;2.67;;;2.13;;
12867;SDS011;33517;49.866;8.320;2023-06-24T08:32:14;2.03;;;1.80;;
12867;SDS011;33517;49.866;8.320;2023-06-24T08:35:08;2.17;;;1.98;;
12867;SDS011;33517;49.866;8.320;2023-06-24T08:38:01;2.65;;;2.30;;
12867;SDS011;33517;49.866;8.320;2023-06-24T08:40:52;5.45;;;2.20;;
12867;SDS011;33517;49.866;8.320;2023-06-24T08:43:48;2.42;;;1.77;;
12867;SDS011;33517;49.866;8.320;2023-06-24T08:46:40;6.90;;;2.80;;
12867;SDS011;33517;49.866;8.320;2023-06-24T08:49:42;1.73;;;1.63;;
12867;SDS011;33517;49.866;8.320;2023-06-24T08:52:55;1.50;;;1.40;;
12867;SDS011;33517;49.866;8.320;2023-06-24T08:55:48;1.98;;;1.42;;
12867;SDS011;33517;49.866;8.320;2023-06-24T08:58:46;3.17;;;2.13;;
12867;SDS011;33517;49.866;8.320;2023-06-24T09:01:46;3.40;;;1.88;;
12867;SDS011;33517;49.866;8.320;2023-06-24T09:04:42;2.22;;;1.67;;
12867;SDS011;33517;49.866;8.320;2023-06-24T09:07:40;1.90;;;1.70;;
12867;SDS011;33517;49.866;8.320;2023-06-24T09:10:36;4.28;;;2.08;;
12867;SDS011;33517;49.866;8.320;2023-06-24T09:13:34;1.88;;;1.77;;
12867;SDS011;33517;49.866;8.320;2023-06-24T09:16:37;2.70;;;2.30;;
12867;SDS011;33517;49.866;8.320;2023-06-24T09:19:30;4.57;;;2.58;;
12867;SDS011;33517;49.866;8.320;2023-06-24T09:22:32;2.25;;;2.08;;
12867;SDS011;33517;49.866;8.320;2023-06-24T09:25:25;2.58;;;2.33;;
12867;SDS011;33517;49.866;8.320;2023-06-24T09:28:19;2.10;;;1.77;;
12867;SDS011;33517;49.866;8.320;2023-06-24T09:31:32;2.10;;;1.90;;
12867;SDS011;33517;49.866;8.320;2023-06-24T09:34:38;5.55;;;2.20;;
12867;SDS011;33517;49.866;8.320;2023-06-24T09:37:36;3.47;;;2.08;;
12867;SDS011;33517;49.866;8.320;2023-06-24T09:40:32;3.03;;;2.25;;
12867;SDS011;33517;49.866;8.320;2023-06-24T09:43:27;5.18;;;2.47;;
12867;SDS011;33517;49.866;8.320;2023-06-24T09:46:25;2.47;;;1.83;;
12867;SDS011;33517;49.866;8.320;2023-06-24T09:49:23;2.78;;;2.25;;
12867;SDS011;33517;49.866;8.320;2023-06-24T09:52:40;2.70;;;2.03;;
12867;SDS011;33517;49.866;8.320;2023-06-24T09:55:38;3.30;;;2.05;;
12867;SDS011;33517;49.866;8.320;2023-06-24T09:58:35;3.67;;;2.10;;
12867;SDS011;33517;49.866;8.320;2023-06-24T10:01:32;2.80;;;2.13;;
12867;SDS011;33517;49.866;8.320;2023-06-24T10:04:25;5.68;;;2.42;;
12867;SDS011;33517;49.866;8.320;2023-06-24T10:07:19;2.15;;;1.90;;
12867;SDS011;33517;49.866;8.320;2023-06-24T10:10:19;2.75;;;2.10;;
12867;SDS011;33517;49.866;8.320;2023-06-24T10:13:12;2.55;;;2.35;;
12867;SDS011;33517;49.866;8.320;2023-06-24T10:16:06;3.13;;;2.45;;
12867;SDS011;33517;49.866;8.320;2023-06-24T10:19:16;2.70;;;1.90;;
12867;SDS011;33517;49.866;8.320;2023-06-24T10:22:13;3.00;;;1.90;;
12867;SDS011;33517;49.866;8.320;2023-06-24T10:25:07;2.20;;;2.00;;
12867;SDS011;33517;49.866;8.320;2023-06-24T10:28:00;2.42;;;2.00;;
12867;SDS011;33517;49.866;8.320;2023-06-24T10:30:54;3.38;;;2.22;;
12867;SDS011;33517;49.866;8.320;2023-06-24T10:33:53;2.20;;;2.00;;
12867;SDS011;33517;49.866;8.320;2023-06-24T10:36:52;3.60;;;2.00;;
12867;SDS011;33517;49.866;8.320;2023-06-24T10:39:46;3.45;;;2.00;;
12867;SDS011;33517;49.866;8.320;2023-06-24T10:42:40;2.88;;;2.08;;
12867;SDS011;33517;49.866;8.320;2023-06-24T10:45:34;2.15;;;1.95;;
12867;SDS011;33517;49.866;8.320;2023-06-24T10:48:26;2.75;;;1.77;;
12867;SDS011;33517;49.866;8.320;2023-06-24T10:51:18;2.22;;;2.03;;
12867;SDS011;33517;49.866;8.320;2023-06-24T10:54:10;3.97;;;2.58;;
12867;SDS011;33517;49.866;8.320;2023-06-24T10:57:02;2.42;;;2.13;;
12867;SDS011;33517;49.866;8.320;2023-06-24T10:59:55;3.03;;;1.67;;
12867;SDS011;33517;49.866;8.320;2023-06-24T11:03:07;1.70;;;1.60;;
12867;SDS011;33517;49.866;8.320;2023-06-24T11:06:05;2.22;;;1.83;;
12867;SDS011;33517;49.866;8.320;2023-06-24T11:09:01;2.42;;;1.95;;
12867;SDS011;33517;49.866;8.320;2023-06-24T11:11:55;2.65;;;1.80;;
12867;SDS011;33517;49.866;8.320;2023-06-24T11:14:49;1.95;;;1.80;;
12867;SDS011;33517;49.866;8.320;2023-06-24T11:17:43;3.72;;;2.47;;
12867;SDS011;33517;49.866;8.320;2023-06-24T11:20:37;1.88;;;1.70;;
12867;SDS011;33517;49.866;8.320;2023-06-24T11:23:31;1.40;;;1.30;;
12867;SDS011;33517;49.866;8.320;2023-06-24T11:26:24;2.17;;;1.65;;
12867;SDS011;33517;49.866;8.320;2023-06-24T11:29:16;1.25;;;1.15;;
12867;SDS011;33517;49.866;8.320;2023-06-24T11:32:20;1.52;;;1.42;;
12867;SDS011;33517;49.866;8.320;2023-06-24T11:35:15;1.50;;;1.40;;
12867;SDS011;33517;49.866;8.320;2023-06-24T11:38:11;2.20;;;1.75;;
12867;SDS011;33517;49.866;8.320;2023-06-24T11:41:02;4.60;;;2.05;;
12867;SDS011;33517;49.866;8.320;2023-06-24T11:43:56;1.67;;;1.58;;
12867;SDS011;33517;49.866;8.320;2023-06-24T11:46:51;2.83;;;1.88;;
12867;SDS011;33517;49.866;8.320;2023-06-24T11:49:55;1.63;;;1.50;;
12867;SDS011;33517;49.866;8.320;2023-06-24T11:52:48;1.90;;;1.80;;
12867;SDS011;33517;49.866;8.320;2023-06-24T11:55:41;1.90;;;1.60;;
12867;SDS011;33517;49.866;8.320;2023-06-24T11:58:37;3.47;;;1.70;;
12867;SDS011;33517;49.866;8.320;2023-06-24T12:01:31;2.55;;;1.50;;
12867;SDS011;33517;49.866;8.320;2023-06-24T12:04:34;2.50;;;1.60;;
12867;SDS011;33517;49.866;8.320;2023-06-24T12:07:29;1.52;;;1.42;;
12867;SDS011;33517;49.866;8.320;2023-06-24T12:10:25;1.73;;;1.38;;
12867;SDS011;33517;49.866;8.320;2023-06-24T12:13:18;1.63;;;1.52;;
12867;SDS011;33517;49.866;8.320;2023-06-24T12:16:12;4.43;;;1.40;;
12867;SDS011;33517;49.866;8.320;2023-06-24T12:19:09;1.35;;;1.25;;
12867;SDS011;33517;49.866;8.320;2023-06-24T12:22:06;1.63;;;1.52;;
12867;SDS011;33517;49.866;8.320;2023-06-24T12:24:57;1.50;;;1.40;;
12867;SDS011;33517;49.866;8.320;2023-06-24T12:27:58;1.25;;;1.15;;
12867;SDS011;33517;49.866;8.320;2023-06-24T12:30:59;1.27;;;1.17;;
12867;SDS011;33517;49.866;8.320;2023-06-24T12:33:53;1.63;;;1.13;;
12867;SDS011;33517;49.866;8.320;2023-06-24T12:36:47;1.05;;;1.05;;
12867;SDS011;33517;49.866;8.320;2023-06-24T12:39:41;1.42;;;1.33;;
12867;SDS011;33517;49.866;8.320;2023-06-24T12:42:57;1.77;;;1.58;;
12867;SDS011;33517;49.866;8.320;2023-06-24T12:45:51;1.30;;;1.20;;
12867;SDS011;33517;49.866;8.320;2023-06-24T12:48:44;2.47;;;1.48;;
12867;SDS011;33517;49.866;8.320;2023-06-24T12:51:36;1.50;;;1.40;;
12867;SDS011;33517;49.866;8.320;2023-06-24T12:54:28;1.52;;;1.40;;
12867;SDS011;33517;49.866;8.320;2023-06-24T12:57:20;2.05;;;1.88;;
12867;SDS011;33517;49.866;8.320;2023-06-24T13:00:12;1.75;;;1.65;;
12867;SDS011;33517;49.866;8.320;2023-06-24T13:03:08;2.60;;;1.80;;
12867;SDS011;33517;49.866;8.320;2023-06-24T13:06:00;2.10;;;1.90;;
12867;SDS011;33517;49.866;8.320;2023-06-24T13:08:54;1.77;;;1.60;;
12867;SDS011;33517;49.866;8.320;2023-06-24T13:11:46;2.85;;;1.70;;
12867;SDS011;33517;49.866;8.320;2023-06-24T13:14:39;1.75;;;1.55;;
12867;SDS011;33517;49.866;8.320;2023-06-24T13:17:31;2.88;;;1.65;;
12867;SDS011;33517;49.866;8.320;2023-06-24T13:20:28;1.38;;;1.27;;
12867;SDS011;33517;49.866;8.320;2023-06-24T13:23:23;3.05;;;1.45;;
12867;SDS011;33517;49.866;8.320;2023-06-24T13:26:24;2.17;;;1.48;;
12867;SDS011;33517;49.866;8.320;2023-06-24T13:29:20;2.78;;;1.50;;
12867;SDS011;33517;49.866;8.320;2023-06-24T13:32:14;7.25;;;1.33;;
12867;SDS011;33517;49.866;8.320;2023-06-24T13:35:06;1.63;;;1.40;;
12867;SDS011;33517;49.866;8.320;2023-06-24T13:37:59;2.17;;;1.40;;
12867;SDS011;33517;49.866;8.320;2023-06-24T13:40:53;1.42;;;1.33;;
12867;SDS011;33517;49.866;8.320;2023-06-24T13:43:45;1.40;;;1.30;;
12867;SDS011;33517;49.866;8.320;2023-06-24T13:46:38;2.35;;;1.95;;
12867;SDS011;33517;49.866;8.320;2023-06-24T13:49:31;2.30;;;1.67;;
12867;SDS011;33517;49.866;8.320;2023-06-24T13:52:23;1.83;;;1.50;;
12867;SDS011;33517;49.866;8.320;2023-06-24T13:55:20;1.83;;;1.70;;
12867;SDS011;33517;49.866;8.320;2023-06-24T13:58:12;1.90;;;1.70;;
12867;SDS011;33517;49.866;8.320;2023-06-24T14:01:06;2.72;;;1.83;;
12867;SDS011;33517;49.866;8.320;2023-06-24T14:03:58;1.52;;;1.42;;
12867;SDS011;33517;49.866;8.320;2023-06-24T14:06:50;3.45;;;3.15;;
12867;SDS011;33517;49.866;8.320;2023-06-24T14:09:43;2.63;;;2.10;;
12867;SDS011;33517;49.866;8.320;2023-06-24T14:12:38;2.50;;;1.55;;
12867;SDS011;33517;49.866;8.320;2023-06-24T14:15:32;1.67;;;1.30;;
12867;SDS011;33517;49.866;8.320;2023-06-24T14:18:24;1.98;;;1.55;;
12867;SDS011;33517;49.866;8.320;2023-06-24T14:21:22;1.40;;;1.30;;
12867;SDS011;33517;49.866;8.320;2023-06-24T14:24:14;1.52;;;1.42;;
12867;SDS011;33517;49.866;8.320;2023-06-24T14:27:06;2.97;;;1.63;;
12867;SDS011;33517;49.866;8.320;2023-06-24T14:30:05;1.73;;;1.63;;
12867;SDS011;33517;49.866;8.320;2023-06-24T14:32:57;3.25;;;1.75;;
12867;SDS011;33517;49.866;8.320;2023-06-24T14:35:55;3.50;;;2.10;;
12867;SDS011;33517;49.866;8.320;2023-06-24T14:38:49;2.40;;;1.73;;
12867;SDS011;33517;49.866;8.320;2023-06-24T14:41:41;3.00;;;1.80;;
12867;SDS011;33517;49.866;8.320;2023-06-24T14:44:33;2.75;;;1.63;;
12867;SDS011;33517;49.866;8.320;2023-06-24T14:47:28;1.73;;;1.52;;
12867;SDS011;33517;49.866;8.320;2023-06-24T14:50:23;2.42;;;1.90;;
12867;SDS011;33517;49.866;8.320;2023-06-24T14:53:17;3.30;;;2.10;;
12867;SDS011;33517;49.866;8.320;2023-06-24T14:56:25;2.28;;;1.98;;
12867;SDS011;33517;49.866;8.320;2023-06-24T14:59:22;1.80;;;1.40;;
12867;SDS011;33517;49.866;8.320;2023-06-24T15:02:14;3.28;;;2.30;;
12867;SDS011;33517;49.866;8.320;2023-06-24T15:05:09;2.92;;;2.22;;
12867;SDS011;33517;49.866;8.320;2023-06-24T15:08:03;2.65;;;2.00;;
12867;SDS011;33517;49.866;8.320;2023-06-24T15:10:57;3.10;;;1.80;;
12867;SDS011;33517;49.866;8.320;2023-06-24T15:13:54;3.97;;;1.67;;
12867;SDS011;33517;49.866;8.320;2023-06-24T15:16:46;2.53;;;2.33;;
12867;SDS011;33517;49.866;8.320;2023-06-24T15:19:38;2.05;;;1.85;;
12867;SDS011;33517;49.866;8.320;2023-06-24T15:22:35;1.67;;;1.58;;
12867;SDS011;33517;49.866;8.320;2023-06-24T15:25:29;2.72;;;1.75;;
12867;SDS011;33517;49.866;8.320;2023-06-24T15:28:23;2.45;;;2.05;;
12867;SDS011;33517;49.866;8.320;2023-06-24T15:31:25;2.00;;;1.75;;
12867;SDS011;33517;49.866;8.320;2023-06-24T15:34:17;1.92;;;1.55;;
12867;SDS011;33517;49.866;8.320;2023-06-24T15:37:13;1.92;;;1.73;;
12867;SDS011;33517;49.866;8.320;2023-06-24T15:40:08;5.53;;;1.80;;
12867;SDS011;33517;49.866;8.320;2023-06-24T15:43:01;2.72;;;2.30;;
12867;SDS011;33517;49.866;8.320;2023-06-24T15:45:57;2.15;;;1.60;;
12867;SDS011;33517;49.866;8.320;2023-06-24T15:48:48;2.58;;;1.67;;
12867;SDS011;33517;49.866;8.320;2023-06-24T15:51:42;1.63;;;1.50;;
12867;SDS011;33517;49.866;8.320;2023-06-24T15:54:39;2.25;;;1.95;;
12867;SDS011;33517;49.866;8.320;2023-06-24T15:57:33;2.70;;;2.30;;
12867;SDS011;33517;49.866;8.320;2023-06-24T16:00:25;2.60;;;1.77;;
12867;SDS011;33517;49.866;8.320;2023-06-24T16:03:17;3.95;;;1.88;;
12867;SDS011;33517;49.866;8.320;2023-06-24T16:06:11;2.20;;;2.00;;
12867;SDS011;33517;49.866;8.320;2023-06-24T16:09:02;1.67;;;1.50;;
12867;SDS011;33517;49.866;8.320;2023-06-24T16:11:54;1.88;;;1.70;;
12867;SDS011;33517;49.866;8.320;2023-06-24T16:14:50;2.58;;;1.75;;
12867;SDS011;33517;49.866;8.320;2023-06-24T16:17:46;2.35;;;1.95;;
12867;SDS011;33517;49.866;8.320;2023-06-24T16:20:37;1.90;;;1.52;;
12867;SDS011;33517;49.866;8.320;2023-06-24T16:23:33;12.25;;;2.17;;
12867;SDS011;33517;49.866;8.320;2023-06-24T16:26:31;2.05;;;1.75;;
12867;SDS011;33517;49.866;8.320;2023-06-24T16:29:25;4.95;;;2.08;;
12867;SDS011;33517;49.866;8.320;2023-06-24T16:32:20;3.20;;;2.33;;
12867;SDS011;33517;49.866;8.320;2023-06-24T16:35:11;4.70;;;1.80;;
12867;SDS011;33517;49.866;8.320;2023-06-24T16:38:06;1.67;;;1.55;;
12867;SDS011;33517;49.866;8.320;2023-06-24T16:40:59;3.63;;;1.85;;
12867;SDS011;33517;49.866;8.320;2023-06-24T16:43:55;2.30;;;1.85;;
12867;SDS011;33517;49.866;8.320;2023-06-24T16:46:47;2.15;;;1.60;;
12867;SDS011;33517;49.866;8.320;2023-06-24T16:49:43;1.73;;;1.60;;
12867;SDS011;33517;49.866;8.320;2023-06-24T16:52:44;1.58;;;1.40;;
12867;SDS011;33517;49.866;8.320;2023-06-24T16:55:38;4.43;;;2.10;;
12867;SDS011;33517;49.866;8.320;2023-06-24T16:58:30;1.73;;;1.58;;
12867;SDS011;33517;49.866;8.320;2023-06-24T17:01:31;5.78;;;2.20;;
12867;SDS011;33517;49.866;8.320;2023-06-24T17:04:23;2.05;;;1.67;;
12867;SDS011;33517;49.866;8.320;2023-06-24T17:07:19;2.92;;;2.42;;
12867;SDS011;33517;49.866;8.320;2023-06-24T17:10:20;2.00;;;1.83;;
12867;SDS011;33517;49.866;8.320;2023-06-24T17:13:15;3.00;;;1.95;;
12867;SDS011;33517;49.866;8.320;2023-06-24T17:16:13;4.07;;;1.90;;
12867;SDS011;33517;49.866;8.320;2023-06-24T17:19:14;3.28;;;2.40;;
12867;SDS011;33517;49.866;8.320;2023-06-24T17:22:06;2.78;;;2.35;;
12867;SDS011;33517;49.866;8.320;2023-06-24T17:25:06;4.45;;;2.92;;
12867;SDS011;33517;49.866;8.320;2023-06-24T17:27:58;2.70;;;2.00;;
12867;SDS011;33517;49.866;8.320;2023-06-24T17:30:50;2.92;;;1.90;;
12867;SDS011;33517;49.866;8.320;2023-06-24T17:33:42;3.15;;;2.03;;
12867;SDS011;33517;49.866;8.320;2023-06-24T17:36:33;2.22;;;2.03;;